createdAt,value
2017-09-10T00:00:55.060Z,99.90
2017-09-10T00:03:23.800Z,99.90
2017-09-10T00:05:52.661Z,99.90
2017-09-10T00:08:20.738Z,99.90
2017-09-10T00:10:48.827Z,99.90
2017-09-10T00:13:17.740Z,99.90
2017-09-10T00:15:45.875Z,99.90
2017-09-10T00:18:13.977Z,99.90
2017-09-10T00:20:42.126Z,99.90
2017-09-10T00:23:10.342Z,99.90
2017-09-10T00:25:39.241Z,99.90
2017-09-10T00:28:07.395Z,99.90
2017-09-10T00:30:35.506Z,99.90
2017-09-10T00:33:03.638Z,99.90
2017-09-10T00:35:31.778Z,99.90
2017-09-10T00:37:59.892Z,99.90
2017-09-10T00:40:28.061Z,99.90
2017-09-10T00:42:56.236Z,99.90
2017-09-10T00:45:24.351Z,99.90
2017-09-10T00:47:52.591Z,99.90
2017-09-10T00:50:21.583Z,99.90
2017-09-10T00:52:49.714Z,99.90
2017-09-10T00:55:17.832Z,99.90
2017-09-10T00:57:46.274Z,99.90
2017-09-10T01:00:14.381Z,99.90
2017-09-10T01:02:42.508Z,99.90
2017-09-10T01:05:10.722Z,99.90
2017-09-10T01:07:39.644Z,99.90
2017-09-10T01:10:07.837Z,99.90
2017-09-10T01:12:36.157Z,99.90
2017-09-10T01:15:04.263Z,99.90
2017-09-10T01:17:33.139Z,99.90
2017-09-10T01:20:01.253Z,99.90
2017-09-10T01:22:29.376Z,99.90
2017-09-10T01:24:57.486Z,99.90
2017-09-10T01:27:25.718Z,99.90
2017-09-10T01:29:53.827Z,99.90
2017-09-10T01:32:21.970Z,99.90
2017-09-10T01:34:50.202Z,99.90
2017-09-10T01:37:18.336Z,99.90
2017-09-10T01:39:46.510Z,99.90
2017-09-10T01:42:14.653Z,99.90
2017-09-10T01:44:42.759Z,99.90
2017-09-10T01:47:10.891Z,99.90
2017-09-10T01:49:39.546Z,99.90
2017-09-10T01:52:07.672Z,99.90
2017-09-10T01:54:36.574Z,99.90
2017-09-10T01:57:04.678Z,99.90
2017-09-10T01:59:32.811Z,99.90
2017-09-10T02:02:00.973Z,99.90
2017-09-10T02:04:29.099Z,99.90
2017-09-10T02:06:57.230Z,99.90
2017-09-10T02:09:25.345Z,99.90
2017-09-10T02:11:53.890Z,99.90
2017-09-10T02:14:22.613Z,99.90
2017-09-10T02:16:50.750Z,99.90
2017-09-10T02:19:18.897Z,99.90
2017-09-10T02:21:46.999Z,99.90
2017-09-10T02:24:15.160Z,99.90
2017-09-10T02:26:43.318Z,99.90
2017-09-10T02:29:11.491Z,99.90
2017-09-10T02:31:39.587Z,99.90
2017-09-10T02:34:08.558Z,99.90
2017-09-10T02:36:36.731Z,99.90
2017-09-10T02:39:04.877Z,99.90
2017-09-10T02:41:32.997Z,99.90
2017-09-10T02:44:01.167Z,99.90
2017-09-10T02:46:29.280Z,99.90
2017-09-10T02:48:57.413Z,99.90
2017-09-10T02:51:25.779Z,99.90
2017-09-10T02:53:53.936Z,99.90
2017-09-10T02:56:22.050Z,99.90
2017-09-10T02:58:50.212Z,99.90
2017-09-10T03:01:19.116Z,99.90
2017-09-10T03:03:47.257Z,99.90
2017-09-10T03:06:15.340Z,99.90
2017-09-10T03:08:43.497Z,99.90
2017-09-10T03:11:11.614Z,99.90
2017-09-10T03:13:39.745Z,99.90
2017-09-10T03:16:07.872Z,99.90
2017-09-10T03:18:35.999Z,99.90
2017-09-10T03:21:04.093Z,99.90
2017-09-10T03:23:32.380Z,99.90
2017-09-10T03:26:00.665Z,99.90
2017-09-10T03:28:28.850Z,99.90
2017-09-10T03:30:56.987Z,99.90
2017-09-10T03:33:25.088Z,99.90
2017-09-10T03:35:53.205Z,99.90
2017-09-10T03:38:21.312Z,99.90
2017-09-10T03:40:50.184Z,99.90
2017-09-10T03:43:18.298Z,99.90
2017-09-10T03:45:47.396Z,99.90
2017-09-10T03:48:16.307Z,99.90
2017-09-10T03:50:44.504Z,99.90
2017-09-10T03:53:12.608Z,99.90
2017-09-10T03:55:40.748Z,99.90
2017-09-10T03:58:08.879Z,99.90
2017-09-10T04:00:36.994Z,99.90
2017-09-10T04:03:05.101Z,99.90
2017-09-10T04:05:33.256Z,99.90
2017-09-10T04:08:01.335Z,99.90
2017-09-10T04:10:29.450Z,99.90
2017-09-10T04:12:57.567Z,99.90
2017-09-10T04:15:25.715Z,99.90
2017-09-10T04:17:53.934Z,99.90
2017-09-10T04:20:22.122Z,99.90
2017-09-10T04:22:50.225Z,99.90
2017-09-10T04:25:18.347Z,99.90
2017-09-10T04:27:46.470Z,99.90
2017-09-10T04:30:14.610Z,99.90
2017-09-10T04:32:42.718Z,99.90
2017-09-10T04:35:11.609Z,99.90
2017-09-10T04:37:39.693Z,99.90
2017-09-10T04:40:08.575Z,99.90
2017-09-10T04:42:36.710Z,99.90
2017-09-10T04:45:04.820Z,99.90
2017-09-10T04:47:32.915Z,99.90
2017-09-10T04:50:01.803Z,99.90
2017-09-10T04:52:29.953Z,99.90
2017-09-10T04:54:58.068Z,99.90
2017-09-10T04:57:26.234Z,99.90
2017-09-10T04:59:55.300Z,99.90
2017-09-10T05:02:23.399Z,99.90
2017-09-10T05:04:52.463Z,99.90
2017-09-10T05:07:20.542Z,99.90
2017-09-10T05:09:48.667Z,99.90
2017-09-10T05:12:17.427Z,99.90
2017-09-10T05:14:45.541Z,99.90
2017-09-10T05:17:13.660Z,99.90
2017-09-10T05:19:41.808Z,99.90
2017-09-10T05:22:09.950Z,99.90
2017-09-10T05:24:38.101Z,99.90
2017-09-10T05:27:06.252Z,99.90
2017-09-10T05:29:35.399Z,99.90
2017-09-10T05:32:03.512Z,99.90
2017-09-10T05:34:31.645Z,99.90
2017-09-10T05:37:00.531Z,99.90
2017-09-10T05:39:28.648Z,99.90
2017-09-10T05:41:56.905Z,99.90
2017-09-10T05:44:25.048Z,99.90
2017-09-10T05:46:53.161Z,99.90
2017-09-10T05:49:21.286Z,99.90
2017-09-10T05:51:49.389Z,99.90
2017-09-10T05:54:18.779Z,99.90
2017-09-10T05:56:46.983Z,99.90
2017-09-10T05:59:15.727Z,99.90
2017-09-10T06:01:44.037Z,99.90
2017-09-10T06:04:12.266Z,99.90
2017-09-10T06:06:40.399Z,99.90
2017-09-10T06:09:09.298Z,99.90
2017-09-10T06:11:37.456Z,99.90
2017-09-10T06:14:05.609Z,99.90
2017-09-10T06:16:34.005Z,99.90
2017-09-10T06:19:02.132Z,99.90
2017-09-10T06:21:30.249Z,99.90
2017-09-10T06:23:58.368Z,99.90
2017-09-10T06:26:26.505Z,99.90
2017-09-10T06:28:55.391Z,99.90
2017-09-10T06:31:23.529Z,99.90
2017-09-10T06:33:51.659Z,99.90
2017-09-10T06:36:19.766Z,99.90
2017-09-10T06:38:48.128Z,99.90
2017-09-10T06:41:16.315Z,99.90
2017-09-10T06:43:44.466Z,99.90
2017-09-10T06:46:12.571Z,99.90
2017-09-10T06:48:40.723Z,99.90
2017-09-10T06:51:16.272Z,99.90
2017-09-10T06:53:44.465Z,99.90
2017-09-10T06:56:12.585Z,99.90
2017-09-10T06:58:40.912Z,99.90
2017-09-10T07:01:09.245Z,99.90
2017-09-10T07:03:37.436Z,99.90
2017-09-10T07:06:06.308Z,99.90
2017-09-10T07:08:34.462Z,99.90
2017-09-10T07:11:02.581Z,99.90
2017-09-10T07:13:30.703Z,99.90
2017-09-10T07:15:58.836Z,99.90
2017-09-10T07:18:26.953Z,99.90
2017-09-10T07:20:55.201Z,99.90
2017-09-10T07:23:23.361Z,99.90
2017-09-10T07:25:52.241Z,99.90
2017-09-10T07:28:20.344Z,99.90
2017-09-10T07:30:48.473Z,99.90
2017-09-10T07:33:16.566Z,99.90
2017-09-10T07:35:44.686Z,99.90
2017-09-10T07:38:12.812Z,99.90
2017-09-10T07:40:40.936Z,99.90
2017-09-10T07:43:09.106Z,99.90
2017-09-10T07:45:37.280Z,99.90
2017-09-10T07:48:05.426Z,99.90
2017-09-10T07:50:33.659Z,99.90
2017-09-10T07:53:01.825Z,99.90
2017-09-10T07:55:30.036Z,99.90
2017-09-10T07:57:58.155Z,99.90
2017-09-10T08:00:26.295Z,99.90
2017-09-10T08:02:54.495Z,99.90
2017-09-10T08:05:22.626Z,99.90
2017-09-10T08:07:50.818Z,99.90
2017-09-10T08:10:18.926Z,99.90
2017-09-10T08:12:47.027Z,99.90
2017-09-10T08:15:15.292Z,99.90
2017-09-10T08:17:44.291Z,99.90
2017-09-10T08:20:12.431Z,99.90
2017-09-10T08:22:40.550Z,99.90
2017-09-10T08:25:09.638Z,99.90
2017-09-10T08:27:37.736Z,99.90
2017-09-10T08:30:05.880Z,99.90
2017-09-10T08:32:34.039Z,99.90
2017-09-10T08:35:02.183Z,99.90
2017-09-10T08:37:30.335Z,99.90
2017-09-10T08:39:58.430Z,99.90
2017-09-10T08:42:26.543Z,99.90
2017-09-10T08:44:54.679Z,99.90
2017-09-10T08:47:22.794Z,99.90
2017-09-10T08:49:50.920Z,99.90
2017-09-10T08:52:19.813Z,99.90
2017-09-10T08:54:47.927Z,99.90
2017-09-10T08:57:16.056Z,99.90
2017-09-10T08:59:44.350Z,99.90
2017-09-10T09:02:12.460Z,99.90
2017-09-10T09:04:40.568Z,99.90
2017-09-10T09:07:09.469Z,99.90
2017-09-10T09:09:37.723Z,99.90
2017-09-10T09:12:05.822Z,99.90
2017-09-10T09:14:34.714Z,99.90
2017-09-10T09:17:03.600Z,99.90
2017-09-10T09:19:32.487Z,99.90
2017-09-10T09:22:01.435Z,99.90
2017-09-10T09:24:29.523Z,99.90
2017-09-10T09:26:57.623Z,99.90
2017-09-10T09:29:26.590Z,99.90
2017-09-10T09:31:54.740Z,99.90
2017-09-10T09:34:22.886Z,99.90
2017-09-10T09:36:51.090Z,99.90
2017-09-10T09:39:21.672Z,99.90
2017-09-10T09:41:50.468Z,99.90
2017-09-10T09:44:19.391Z,99.90
2017-09-10T09:46:47.469Z,99.90
2017-09-10T09:49:15.610Z,99.90
2017-09-10T09:51:44.490Z,99.90
2017-09-10T09:54:13.682Z,99.90
2017-09-10T09:56:42.005Z,99.90
2017-09-10T09:59:10.113Z,99.90
2017-09-10T10:01:39.074Z,99.90
2017-09-10T10:04:07.974Z,99.90
2017-09-10T10:06:36.868Z,99.90
2017-09-10T10:09:04.970Z,99.90
2017-09-10T10:11:33.117Z,99.90
2017-09-10T10:14:01.218Z,99.90
2017-09-10T10:16:29.375Z,99.90
2017-09-10T10:18:57.491Z,99.90
2017-09-10T10:21:25.603Z,99.90
2017-09-10T10:23:53.715Z,99.90
2017-09-10T10:26:21.843Z,99.90
2017-09-10T10:28:50.988Z,99.90
2017-09-10T10:31:19.114Z,99.90
2017-09-10T10:33:47.344Z,99.90
2017-09-10T10:36:15.474Z,99.30
2017-09-10T10:38:43.593Z,98.60
2017-09-10T10:41:12.583Z,98.70
2017-09-10T10:43:40.679Z,98.60
2017-09-10T10:46:08.777Z,97.70
2017-09-10T10:48:36.910Z,97.10
2017-09-10T10:51:05.024Z,95.80
2017-09-10T10:53:33.162Z,97.00
2017-09-10T10:56:01.291Z,96.70
2017-09-10T10:58:29.758Z,96.00
2017-09-10T11:00:57.846Z,98.00
2017-09-10T11:03:25.967Z,97.40
2017-09-10T11:05:54.061Z,95.90
2017-09-10T11:08:22.140Z,94.50
2017-09-10T11:10:50.263Z,95.10
2017-09-10T11:13:18.378Z,95.00
2017-09-10T11:15:47.251Z,95.70
2017-09-10T11:18:16.133Z,95.40
2017-09-10T11:20:44.243Z,95.30
2017-09-10T11:23:12.345Z,94.50
2017-09-10T11:25:40.844Z,93.30
2017-09-10T11:28:09.687Z,93.40
2017-09-10T11:30:37.819Z,93.40
2017-09-10T11:33:05.957Z,94.10
2017-09-10T11:35:34.853Z,94.30
2017-09-10T11:38:02.942Z,94.30
2017-09-10T11:40:31.171Z,93.50
2017-09-10T11:42:59.269Z,92.80
2017-09-10T11:45:27.396Z,92.90
2017-09-10T11:47:55.773Z,93.50
2017-09-10T11:50:23.859Z,93.30
2017-09-10T11:52:52.072Z,93.20
2017-09-10T11:55:20.164Z,91.30
2017-09-10T11:57:48.316Z,92.10
2017-09-10T12:00:16.489Z,92.60
2017-09-10T12:02:44.590Z,92.40
2017-09-10T12:05:12.685Z,92.80
2017-09-10T12:07:42.476Z,92.00
2017-09-10T12:10:11.348Z,91.10
2017-09-10T12:12:39.685Z,91.00
2017-09-10T12:15:07.772Z,91.80
2017-09-10T12:17:36.649Z,91.90
2017-09-10T12:20:04.791Z,91.80
2017-09-10T12:22:32.920Z,91.80
2017-09-10T12:25:01.075Z,90.50
2017-09-10T12:27:29.165Z,90.90
2017-09-10T12:29:57.272Z,90.10
2017-09-10T12:32:25.423Z,89.20
2017-09-10T12:34:53.498Z,89.10
2017-09-10T12:37:21.612Z,90.70
2017-09-10T12:39:50.492Z,92.90
2017-09-10T12:42:18.707Z,92.90
2017-09-10T12:44:46.846Z,94.70
2017-09-10T12:47:15.005Z,94.50
2017-09-10T12:49:43.097Z,95.10
2017-09-10T12:52:11.984Z,94.10
2017-09-10T12:54:40.117Z,93.90
2017-09-10T12:57:08.233Z,92.80
2017-09-10T12:59:36.344Z,93.20
2017-09-10T13:02:04.542Z,93.70
2017-09-10T13:04:32.654Z,94.20
2017-09-10T13:07:00.805Z,95.40
2017-09-10T13:09:28.939Z,94.80
2017-09-10T13:11:57.056Z,94.00
2017-09-10T13:14:25.144Z,93.80
2017-09-10T13:16:53.269Z,93.00
2017-09-10T13:19:21.378Z,91.90
2017-09-10T13:21:49.490Z,92.40
2017-09-10T13:24:17.615Z,99.90
2017-09-10T13:26:46.502Z,99.90
2017-09-10T13:29:15.361Z,99.90
2017-09-10T13:31:43.439Z,99.90
2017-09-10T13:34:11.544Z,99.90
2017-09-10T13:36:39.649Z,99.90
2017-09-10T13:39:07.789Z,99.90
2017-09-10T13:41:35.921Z,99.90
2017-09-10T13:44:04.077Z,97.90
2017-09-10T13:46:32.177Z,96.10
2017-09-10T13:49:00.271Z,96.40
2017-09-10T13:51:29.280Z,98.00
2017-09-10T13:53:57.376Z,98.50
2017-09-10T13:56:25.496Z,97.80
2017-09-10T13:58:53.615Z,96.20
2017-09-10T14:01:22.574Z,97.00
2017-09-10T14:03:50.666Z,97.00
2017-09-10T14:06:18.788Z,96.00
2017-09-10T14:08:47.106Z,97.40
2017-09-10T14:11:15.998Z,99.90
2017-09-10T14:13:44.710Z,99.90
2017-09-10T14:16:12.828Z,99.90
2017-09-10T14:18:41.567Z,99.90
2017-09-10T14:21:09.723Z,99.90
2017-09-10T14:23:37.835Z,99.90
2017-09-10T14:26:05.952Z,99.90
2017-09-10T14:28:34.081Z,99.90
2017-09-10T14:31:02.201Z,99.90
2017-09-10T14:33:30.312Z,99.90
2017-09-10T14:35:59.258Z,99.90
2017-09-10T14:38:28.109Z,99.90
2017-09-10T14:40:56.202Z,99.90
2017-09-10T14:43:24.391Z,99.90
2017-09-10T14:45:52.585Z,99.90
2017-09-10T14:48:21.479Z,99.90
2017-09-10T14:50:49.600Z,99.90
2017-09-10T14:53:17.713Z,99.90
2017-09-10T14:55:45.824Z,99.90
2017-09-10T14:58:13.928Z,99.90
2017-09-10T15:00:42.037Z,99.90
2017-09-10T15:03:10.886Z,99.90
2017-09-10T15:05:38.993Z,99.90
2017-09-10T15:08:07.849Z,99.90
2017-09-10T15:10:35.943Z,99.90
2017-09-10T15:13:04.062Z,99.90
2017-09-10T15:15:32.265Z,99.90
2017-09-10T15:18:00.381Z,99.90
2017-09-10T15:20:28.496Z,99.90
2017-09-10T15:22:56.602Z,99.90
2017-09-10T15:25:24.719Z,99.90
2017-09-10T15:27:52.841Z,99.90
2017-09-10T15:30:20.946Z,99.90
2017-09-10T15:32:49.344Z,99.90
2017-09-10T15:35:17.470Z,99.90
2017-09-10T15:37:46.368Z,99.90
2017-09-10T15:40:15.252Z,99.90
2017-09-10T15:42:43.399Z,99.90
2017-09-10T15:45:11.592Z,99.90
2017-09-10T15:47:39.669Z,99.90
2017-09-10T15:50:08.561Z,99.90
2017-09-10T15:52:36.656Z,99.90
2017-09-10T15:55:04.777Z,99.90
2017-09-10T15:57:32.948Z,99.90
2017-09-10T16:00:01.081Z,99.90
2017-09-10T16:02:29.181Z,99.90
2017-09-10T16:04:57.331Z,99.90
2017-09-10T16:07:25.424Z,99.90
2017-09-10T16:09:53.521Z,99.90
2017-09-10T16:12:21.643Z,99.90
2017-09-10T16:14:50.574Z,99.90
2017-09-10T16:17:18.817Z,99.90
2017-09-10T16:19:48.257Z,99.90
2017-09-10T16:22:16.409Z,99.90
2017-09-10T16:24:45.308Z,99.90
2017-09-10T16:27:14.213Z,99.90
2017-09-10T16:29:42.306Z,99.90
2017-09-10T16:32:11.997Z,99.90
2017-09-10T16:34:40.121Z,99.90
2017-09-10T16:37:08.390Z,99.90
2017-09-10T16:39:36.558Z,99.90
2017-09-10T16:42:04.827Z,99.90
2017-09-10T16:44:32.929Z,99.90
2017-09-10T16:47:02.013Z,99.90
2017-09-10T16:49:31.032Z,99.90
2017-09-10T16:51:59.676Z,99.90
2017-09-10T16:54:27.779Z,99.90
2017-09-10T16:56:56.245Z,99.90
2017-09-10T16:59:24.433Z,99.90
2017-09-10T17:01:52.562Z,99.90
2017-09-10T17:04:20.671Z,99.90
2017-09-10T17:06:48.813Z,99.90
2017-09-10T17:09:17.166Z,99.90
2017-09-10T17:11:45.315Z,99.90
2017-09-10T17:14:14.638Z,99.90
2017-09-10T17:16:42.863Z,99.90
2017-09-10T17:19:11.996Z,99.90
2017-09-10T17:21:40.104Z,99.90
2017-09-10T17:24:08.202Z,99.90
2017-09-10T17:26:36.321Z,99.90
2017-09-10T17:29:04.439Z,99.90
2017-09-10T17:31:32.528Z,99.90
2017-09-10T17:34:00.726Z,99.90
2017-09-10T17:36:28.813Z,99.90
2017-09-10T17:38:56.948Z,99.90
2017-09-10T17:41:25.077Z,99.90
2017-09-10T17:43:53.207Z,99.90
2017-09-10T17:46:21.374Z,99.90
2017-09-10T17:48:49.490Z,99.90
2017-09-10T17:51:18.400Z,99.90
2017-09-10T17:53:46.512Z,99.90
2017-09-10T17:56:14.649Z,99.90
2017-09-10T17:58:42.757Z,99.90
2017-09-10T18:01:10.846Z,99.90
2017-09-10T18:03:38.971Z,99.90
2017-09-10T18:06:07.838Z,99.90
2017-09-10T18:08:35.964Z,99.90
2017-09-10T18:11:04.134Z,99.90
2017-09-10T18:13:32.258Z,99.90
2017-09-10T18:16:00.394Z,99.90
2017-09-10T18:18:28.496Z,99.90
2017-09-10T18:20:56.638Z,99.90
2017-09-10T18:23:24.725Z,99.90
2017-09-10T18:25:52.876Z,99.90
2017-09-10T18:28:21.494Z,99.90
2017-09-10T18:30:49.999Z,99.90
2017-09-10T18:33:18.121Z,99.90
2017-09-10T18:35:46.227Z,99.90
2017-09-10T18:38:18.021Z,99.90
2017-09-10T18:40:46.152Z,99.90
2017-09-10T18:43:16.561Z,99.90
2017-09-10T18:45:44.739Z,99.90
2017-09-10T18:48:12.901Z,99.90
2017-09-10T18:50:41.046Z,99.90
2017-09-10T18:53:09.171Z,99.90
2017-09-10T18:55:37.278Z,99.90
2017-09-10T18:58:06.166Z,99.90
2017-09-10T19:00:34.278Z,99.90
2017-09-10T19:03:02.402Z,99.90
2017-09-10T19:05:30.511Z,99.90
2017-09-10T19:07:58.658Z,99.90
2017-09-10T19:10:27.694Z,99.90
2017-09-10T19:12:55.813Z,99.90
2017-09-10T19:15:25.364Z,99.90
2017-09-10T19:17:53.487Z,99.90
2017-09-10T19:20:26.486Z,99.90
2017-09-10T19:22:54.952Z,99.90
2017-09-10T19:25:23.888Z,99.90
2017-09-10T19:27:52.382Z,99.90
2017-09-10T19:30:20.810Z,99.90
2017-09-10T19:32:49.711Z,99.90
2017-09-10T19:35:17.925Z,99.90
2017-09-10T19:37:46.021Z,99.90
2017-09-10T19:40:14.128Z,99.90
2017-09-10T19:42:42.230Z,99.90
2017-09-10T19:45:10.934Z,99.90
2017-09-10T19:47:39.042Z,99.90
2017-09-10T19:50:07.269Z,99.90
2017-09-10T19:52:35.554Z,99.90
2017-09-10T19:55:03.760Z,99.90
2017-09-10T19:57:32.978Z,99.90
2017-09-10T20:00:01.595Z,99.90
2017-09-10T20:02:29.715Z,99.90
2017-09-10T20:04:57.844Z,99.90
2017-09-10T20:07:26.765Z,99.90
2017-09-10T20:09:54.908Z,99.90
2017-09-10T20:12:22.985Z,99.90
2017-09-10T20:14:51.090Z,99.90
2017-09-10T20:17:20.175Z,99.90
2017-09-10T20:19:49.053Z,99.90
2017-09-10T20:22:17.207Z,99.90
2017-09-10T20:24:45.291Z,99.90
2017-09-10T20:27:13.411Z,99.90
2017-09-10T20:29:41.559Z,99.90
2017-09-10T20:32:09.651Z,99.90
2017-09-10T20:34:37.773Z,99.90
2017-09-10T20:37:05.951Z,99.90
2017-09-10T20:39:35.094Z,99.90
2017-09-10T20:42:03.217Z,99.90
2017-09-10T20:44:31.330Z,99.90
2017-09-10T20:46:59.477Z,99.90
2017-09-10T20:49:27.614Z,99.90
2017-09-10T20:51:55.731Z,99.90
2017-09-10T20:54:23.847Z,99.90
2017-09-10T20:56:52.713Z,99.90
2017-09-10T20:59:20.889Z,99.90
2017-09-10T21:01:48.985Z,99.90
2017-09-10T21:04:17.134Z,99.90
2017-09-10T21:06:45.267Z,99.90
2017-09-10T21:09:14.116Z,99.90
2017-09-10T21:11:42.228Z,99.90
2017-09-10T21:14:10.321Z,99.90
2017-09-10T21:16:38.467Z,99.90
2017-09-10T21:19:06.655Z,99.90
2017-09-10T21:21:35.523Z,99.90
2017-09-10T21:24:03.629Z,99.90
2017-09-10T21:26:31.749Z,99.90
2017-09-10T21:28:59.945Z,99.90
2017-09-10T21:31:28.077Z,99.90
2017-09-10T21:33:56.201Z,99.90
2017-09-10T21:36:25.196Z,99.90
2017-09-10T21:38:53.311Z,99.90
2017-09-10T21:41:21.463Z,99.90
2017-09-10T21:43:49.561Z,99.90
2017-09-10T21:46:17.671Z,99.90
2017-09-10T21:48:45.807Z,99.90
2017-09-10T21:51:14.220Z,99.90
2017-09-10T21:53:42.346Z,99.90
2017-09-10T21:56:10.458Z,99.90
2017-09-10T21:58:38.653Z,99.90
2017-09-10T22:01:06.814Z,99.90
2017-09-10T22:03:34.919Z,99.90
2017-09-10T22:06:03.018Z,99.90
2017-09-10T22:08:31.146Z,99.90
2017-09-10T22:11:00.027Z,99.90
2017-09-10T22:13:28.166Z,99.90
2017-09-10T22:15:56.260Z,99.90
2017-09-10T22:18:24.381Z,99.90
2017-09-10T22:20:52.518Z,99.90
2017-09-10T22:23:20.615Z,99.90
2017-09-10T22:25:48.764Z,99.90
2017-09-10T22:28:17.958Z,99.90
2017-09-10T22:30:46.145Z,99.90
2017-09-10T22:33:51.657Z,99.90
2017-09-10T22:36:19.791Z,99.90
2017-09-10T22:38:47.890Z,99.90
2017-09-10T22:41:16.757Z,99.90
2017-09-10T22:43:44.943Z,99.90
2017-09-10T22:46:13.790Z,99.90
2017-09-10T22:48:41.898Z,99.90
2017-09-10T22:51:10.787Z,99.90
2017-09-10T22:53:38.889Z,99.90
2017-09-10T22:56:07.008Z,99.90
2017-09-10T22:58:35.204Z,99.90
2017-09-10T23:01:03.319Z,99.90
2017-09-10T23:03:31.404Z,99.90
2017-09-10T23:06:01.098Z,99.90
2017-09-10T23:08:29.205Z,99.90
2017-09-10T23:10:57.301Z,99.90
2017-09-10T23:13:25.535Z,99.90
2017-09-10T23:15:54.549Z,99.90
2017-09-10T23:18:22.814Z,99.90
2017-09-10T23:20:50.908Z,99.90
2017-09-10T23:23:18.997Z,99.90
2017-09-10T23:25:47.141Z,99.90
2017-09-10T23:28:15.273Z,99.90
2017-09-10T23:30:43.408Z,99.90
2017-09-10T23:33:11.742Z,99.90
2017-09-10T23:35:39.970Z,99.90
2017-09-10T23:38:08.081Z,99.90
2017-09-10T23:40:36.208Z,99.90
2017-09-10T23:43:04.792Z,99.90
2017-09-10T23:45:32.902Z,99.90
2017-09-10T23:48:03.463Z,99.90
2017-09-10T23:50:31.580Z,99.90
2017-09-10T23:53:00.126Z,99.90
2017-09-10T23:55:29.034Z,99.90
2017-09-10T23:57:57.154Z,99.90
